Star Epsilon — V7NZ7 — position and weather

sailwx.info

Track history (hours):
 
Tides and Currents Weather Stations Pressure Air Temp Water Temp Dewpoint Dewpoint Depression Visibility Wind Speed Wind Dir Waves Ship Positions

Star Epsilon

Last reported at 2014-Dec-19 22:33 UTC. Time now 2014-Dec-19 23:28 UTC.
Position N 31°55' E 120°54'.

Length 189 m; draft 9.8 m.

Type: Cargo ship. MMSI: 538003043.

Date/timePositionNaut miles runAvg speedWind from/ knotsBaromVisibWave heightAir tempDewpointWater temp
2014-Dec-19 22:33N 31°55' E 120°54'0 0.0
2014-Dec-19 21:33N 31°55' E 120°54'0 0.0
2014-Dec-19 20:31N 31°55' E 120°54'0 0.0
2014-Dec-19 19:33N 31°55' E 120°54'0 0.0
2014-Dec-19 18:33N 31°55' E 120°54'0 0.0
2014-Dec-19 17:31N 31°55' E 120°54'0 0.0
2014-Dec-19 16:33N 31°55' E 120°54'0 0.0
2014-Dec-19 15:33N 31°55' E 120°54'0 0.0
2014-Dec-19 14:30N 31°55' E 120°54'0 0.0
2014-Dec-19 13:33N 31°55' E 120°54'0 0.0
2014-Dec-19 12:31N 31°55' E 120°54'0 0.0
2014-Dec-19 11:33N 31°55' E 120°54'0 0.0
2014-Dec-19 10:27N 31°55' E 120°54'0 0.0
2014-Dec-19 09:33N 31°55' E 120°54'0 0.0
2014-Dec-19 08:24N 31°55' E 120°54'0 0.0
2014-Dec-19 07:33N 31°55' E 120°54'0 0.0
2014-Dec-19 06:33N 31°55' E 120°54'0 0.0
2014-Dec-19 05:21N 31°55' E 120°54'0 0.0
2014-Dec-19 04:30N 31°55' E 120°54'0 0.0
2014-Dec-19 03:30N 31°55' E 120°54'0 0.0
2014-Dec-19 02:33N 31°55' E 120°54'0 0.0
2014-Dec-19 01:33N 31°55' E 120°54'0 0.0
2014-Dec-19 00:33N 31°55' E 120°54'0 0.0
2014-Dec-18 23:33N 31°55' E 120°54'0 0.0
2014-Dec-18 22:33N 31°55' E 120°54'0 0.0
2014-Dec-18 21:33N 31°55' E 120°54'0 0.0
2014-Dec-18 20:33N 31°55' E 120°54'0 0.0
2014-Dec-18 19:30N 31°55' E 120°54'0 0.0
2014-Dec-18 18:33N 31°55' E 120°54'0 0.0
2014-Dec-18 17:21N 31°55' E 120°54'0 0.0
2014-Dec-18 16:33N 31°55' E 120°54'0 0.0
2014-Dec-18 15:30N 31°55' E 120°54'0 0.0
2014-Dec-18 14:21N 31°55' E 120°54'0 0.0
2014-Dec-18 13:24N 31°55' E 120°54'0 0.0
2014-Dec-18 12:33N 31°55' E 120°54'0 0.0
2014-Dec-18 11:21N 31°55' E 120°54'0 0.0
2014-Dec-18 10:33N 31°55' E 120°54'0 0.0
2014-Dec-18 09:27N 31°55' E 120°54'0 0.0
2014-Dec-18 08:27N 31°55' E 120°54'0 0.4
2014-Dec-18 07:33N 31°55' E 120°54'7 6.9
2014-Dec-18 06:33N 31°48' E 120°55'10 9.9
2014-Dec-18 05:33N 31°44' E 121°06'9 9.4
2014-Dec-18 04:33N 31°39' E 121°15'9 8.9
2014-Dec-18 03:33N 31°32' E 121°22'1010.2
2014-Dec-18 02:33N 31°25' E 121°31'8 7.9
2014-Dec-18 01:33N 31°21' E 121°39'1010.2
2014-Dec-18 00:34N 31°17' E 121°50'1211.7
2014-Dec-17 23:33N 31°14' E 122°03'1010.5
2014-Dec-17 22:33N 31°09' E 122°14'9 8.9
2014-Dec-17 21:32N 31°07' E 122°24'7 6.8
2014-Dec-17 20:28N 31°07' E 122°32'  
2014-Dec-14 16:33N 35°15' E 119°54'1312.8
2014-Dec-14 15:33N 35°18' E 119°39'7 6.8
2014-Dec-14 14:33N 35°21' E 119°32'0 0.0
2014-Dec-14 13:33N 35°21' E 119°32'0 0.0
2014-Dec-14 12:30N 35°21' E 119°32'0 0.0
2014-Dec-14 11:30N 35°21' E 119°32'0 0.0
2014-Dec-14 10:24N 35°21' E 119°32'0 0.0
2014-Dec-14 09:30N 35°21' E 119°32'0 0.0
2014-Dec-14 08:30N 35°21' E 119°32'0 0.0
2014-Dec-14 07:30N 35°21' E 119°32'0 0.0
2014-Dec-14 06:33N 35°21' E 119°32'0 0.0
2014-Dec-14 05:33N 35°21' E 119°32'0 0.0
2014-Dec-14 04:33N 35°21' E 119°32'0 0.0
2014-Dec-14 03:33N 35°21' E 119°32'0 0.0
2014-Dec-14 02:33N 35°21' E 119°32'0 0.0
2014-Dec-14 01:27N 35°21' E 119°32'0 0.0
2014-Dec-14 00:33N 35°21' E 119°32'0 0.0
2014-Dec-13 23:33N 35°21' E 119°32'0 0.0
2014-Dec-13 22:33N 35°21' E 119°32'2 1.6
2014-Dec-13 21:33N 35°20' E 119°33'6 6.0
2014-Dec-13 20:33N 35°16' E 119°39'0 0.2
2014-Dec-13 19:17N 35°16' E 119°39'0 0.0
2014-Dec-13 18:29N 35°16' E 119°39'0 0.0
2014-Dec-13 17:29N 35°16' E 119°39'0 0.1
2014-Dec-13 16:29N 35°16' E 119°39'0 0.1
2014-Dec-13 15:23N 35°16' E 119°39'0 0.0
2014-Dec-13 14:23N 35°16' E 119°39'0 0.1
2014-Dec-13 13:29N 35°16' E 119°39'0 0.0
2014-Dec-13 12:29N 35°16' E 119°39'0 0.0
2014-Dec-13 11:29N 35°16' E 119°39'0 0.0
2014-Dec-13 10:29N 35°16' E 119°39'0 0.1
2014-Dec-13 09:29N 35°16' E 119°39'0 0.1
2014-Dec-13 08:29N 35°16' E 119°39'0 0.0
2014-Dec-13 07:29N 35°16' E 119°39'0 0.0
2014-Dec-13 06:29N 35°16' E 119°39'0 0.0
2014-Dec-13 05:23N 35°16' E 119°39'0 0.0
2014-Dec-13 04:23N 35°16' E 119°39'0 0.0
2014-Dec-13 03:11N 35°16' E 119°39'0 0.1
2014-Dec-13 02:23N 35°16' E 119°39'0 0.1
2014-Dec-13 01:29N 35°16' E 119°39'0 0.0
2014-Dec-12 23:29N 35°16' E 119°39'0 0.2
2014-Dec-12 22:23N 35°16' E 119°39'0 0.1
2014-Dec-12 21:29N 35°16' E 119°39'0 0.0
2014-Dec-12 20:29N 35°16' E 119°39'0 0.0
2014-Dec-12 19:29N 35°16' E 119°39'0 0.0
2014-Dec-12 18:29N 35°16' E 119°39'0 0.1
2014-Dec-12 17:29N 35°16' E 119°39'0 0.0
2014-Dec-12 16:29N 35°16' E 119°39'0 0.1
2014-Dec-12 15:29N 35°16' E 119°39'5 5.5
2014-Dec-12 14:33N 35°17' E 119°45'  
Track history (hours):
 
Tides and Currents Weather Stations Pressure Air Temp Water Temp Dewpoint Dewpoint Depression Visibility Wind Speed Wind Dir Waves Ship Positions

Star Epsilon

Last reported at 2014-Dec-19 22:33 UTC. Time now 2014-Dec-19 23:28 UTC.
Position N 31°55' E 120°54'.

Length 189 m; draft 9.8 m.

Type: Cargo ship. MMSI: 538003043.

Date/timePositionNaut miles runAvg speedWind from/ knotsBaromVisibWave heightAir tempDewpointWater temp
2014-Dec-19 22:33N 31°55' E 120°54'0 0.0
2014-Dec-19 21:33N 31°55' E 120°54'0 0.0
2014-Dec-19 20:31N 31°55' E 120°54'0 0.0
2014-Dec-19 19:33N 31°55' E 120°54'0 0.0
2014-Dec-19 18:33N 31°55' E 120°54'0 0.0
2014-Dec-19 17:31N 31°55' E 120°54'0 0.0
2014-Dec-19 16:33N 31°55' E 120°54'0 0.0
2014-Dec-19 15:33N 31°55' E 120°54'0 0.0
2014-Dec-19 14:30N 31°55' E 120°54'0 0.0
2014-Dec-19 13:33N 31°55' E 120°54'0 0.0
2014-Dec-19 12:31N 31°55' E 120°54'0 0.0
2014-Dec-19 11:33N 31°55' E 120°54'0 0.0
2014-Dec-19 10:27N 31°55' E 120°54'0 0.0
2014-Dec-19 09:33N 31°55' E 120°54'0 0.0
2014-Dec-19 08:24N 31°55' E 120°54'0 0.0
2014-Dec-19 07:33N 31°55' E 120°54'0 0.0
2014-Dec-19 06:33N 31°55' E 120°54'0 0.0
2014-Dec-19 05:21N 31°55' E 120°54'0 0.0
2014-Dec-19 04:30N 31°55' E 120°54'0 0.0
2014-Dec-19 03:30N 31°55' E 120°54'0 0.0
2014-Dec-19 02:33N 31°55' E 120°54'0 0.0
2014-Dec-19 01:33N 31°55' E 120°54'0 0.0
2014-Dec-19 00:33N 31°55' E 120°54'0 0.0
2014-Dec-18 23:33N 31°55' E 120°54'0 0.0
2014-Dec-18 22:33N 31°55' E 120°54'0 0.0
2014-Dec-18 21:33N 31°55' E 120°54'0 0.0
2014-Dec-18 20:33N 31°55' E 120°54'0 0.0
2014-Dec-18 19:30N 31°55' E 120°54'0 0.0
2014-Dec-18 18:33N 31°55' E 120°54'0 0.0
2014-Dec-18 17:21N 31°55' E 120°54'0 0.0
2014-Dec-18 16:33N 31°55' E 120°54'0 0.0
2014-Dec-18 15:30N 31°55' E 120°54'0 0.0
2014-Dec-18 14:21N 31°55' E 120°54'0 0.0
2014-Dec-18 13:24N 31°55' E 120°54'0 0.0
2014-Dec-18 12:33N 31°55' E 120°54'0 0.0
2014-Dec-18 11:21N 31°55' E 120°54'0 0.0
2014-Dec-18 10:33N 31°55' E 120°54'0 0.0
2014-Dec-18 09:27N 31°55' E 120°54'0 0.0
2014-Dec-18 08:27N 31°55' E 120°54'0 0.4
2014-Dec-18 07:33N 31°55' E 120°54'7 6.9
2014-Dec-18 06:33N 31°48' E 120°55'10 9.9
2014-Dec-18 05:33N 31°44' E 121°06'9 9.4
2014-Dec-18 04:33N 31°39' E 121°15'9 8.9
2014-Dec-18 03:33N 31°32' E 121°22'1010.2
2014-Dec-18 02:33N 31°25' E 121°31'8 7.9
2014-Dec-18 01:33N 31°21' E 121°39'1010.2
2014-Dec-18 00:34N 31°17' E 121°50'1211.7
2014-Dec-17 23:33N 31°14' E 122°03'1010.5
2014-Dec-17 22:33N 31°09' E 122°14'9 8.9
2014-Dec-17 21:32N 31°07' E 122°24'7 6.8
2014-Dec-17 20:28N 31°07' E 122°32'  
2014-Dec-14 16:33N 35°15' E 119°54'1312.8
2014-Dec-14 15:33N 35°18' E 119°39'7 6.8
2014-Dec-14 14:33N 35°21' E 119°32'0 0.0
2014-Dec-14 13:33N 35°21' E 119°32'0 0.0
2014-Dec-14 12:30N 35°21' E 119°32'0 0.0
2014-Dec-14 11:30N 35°21' E 119°32'0 0.0
2014-Dec-14 10:24N 35°21' E 119°32'0 0.0
2014-Dec-14 09:30N 35°21' E 119°32'0 0.0
2014-Dec-14 08:30N 35°21' E 119°32'0 0.0
2014-Dec-14 07:30N 35°21' E 119°32'0 0.0
2014-Dec-14 06:33N 35°21' E 119°32'0 0.0
2014-Dec-14 05:33N 35°21' E 119°32'0 0.0
2014-Dec-14 04:33N 35°21' E 119°32'0 0.0
2014-Dec-14 03:33N 35°21' E 119°32'0 0.0
2014-Dec-14 02:33N 35°21' E 119°32'0 0.0
2014-Dec-14 01:27N 35°21' E 119°32'0 0.0
2014-Dec-14 00:33N 35°21' E 119°32'0 0.0
2014-Dec-13 23:33N 35°21' E 119°32'0 0.0
2014-Dec-13 22:33N 35°21' E 119°32'2 1.6
2014-Dec-13 21:33N 35°20' E 119°33'6 6.0
2014-Dec-13 20:33N 35°16' E 119°39'0 0.2
2014-Dec-13 19:17N 35°16' E 119°39'0 0.0
2014-Dec-13 18:29N 35°16' E 119°39'0 0.0
2014-Dec-13 17:29N 35°16' E 119°39'0 0.1
2014-Dec-13 16:29N 35°16' E 119°39'0 0.1
2014-Dec-13 15:23N 35°16' E 119°39'0 0.0
2014-Dec-13 14:23N 35°16' E 119°39'0 0.1
2014-Dec-13 13:29N 35°16' E 119°39'0 0.0
2014-Dec-13 12:29N 35°16' E 119°39'0 0.0
2014-Dec-13 11:29N 35°16' E 119°39'0 0.0
2014-Dec-13 10:29N 35°16' E 119°39'0 0.1
2014-Dec-13 09:29N 35°16' E 119°39'0 0.1
2014-Dec-13 08:29N 35°16' E 119°39'0 0.0
2014-Dec-13 07:29N 35°16' E 119°39'0 0.0
2014-Dec-13 06:29N 35°16' E 119°39'0 0.0
2014-Dec-13 05:23N 35°16' E 119°39'0 0.0
2014-Dec-13 04:23N 35°16' E 119°39'0 0.0
2014-Dec-13 03:11N 35°16' E 119°39'0 0.1
2014-Dec-13 02:23N 35°16' E 119°39'0 0.1
2014-Dec-13 01:29N 35°16' E 119°39'0 0.0
2014-Dec-12 23:29N 35°16' E 119°39'0 0.2
2014-Dec-12 22:23N 35°16' E 119°39'0 0.1
2014-Dec-12 21:29N 35°16' E 119°39'0 0.0
2014-Dec-12 20:29N 35°16' E 119°39'0 0.0
2014-Dec-12 19:29N 35°16' E 119°39'0 0.0
2014-Dec-12 18:29N 35°16' E 119°39'0 0.1
2014-Dec-12 17:29N 35°16' E 119°39'0 0.0
2014-Dec-12 16:29N 35°16' E 119°39'0 0.1
2014-Dec-12 15:29N 35°16' E 119°39'5 5.5
2014-Dec-12 14:33N 35°17' E 119°45'  

Dump ship's entire track history